Skelton, WV (25919)

7:00 AM EST on January 21, 2017 (GMT -0500)
Beckley | | Change Station

Elev 2503 ft 37.79 °N, 81.12 °W | Updated 9 minutes ago

Mostly Cloudy
Mostly Cloudy
48 °F
Feels Like 48 °F
N
5
Wind Variable Wind from SE

Today
High -- | Low -- °F
--% Chance of Precip.
Yesterday
High -- | Low -- °F
Precip. -- in
Pressure 29.85 in
Visibility 10.0 miles
Clouds Clear
Dew Point 45 °F
Humidity 89%
Rainfall 0.00 in
Snow Depth Not available.
7:36 AM 5:36 PM
Waning Crescent, 35% visible
METAR KBKW 211151Z AUTO 14004KT 10SM CLR 09/07 A2985 RMK AO2 SLP106 70001 T00890072 10106 20078 56007
Pressure 29.85 in
Visibility 10.0 miles
Clouds Clear
Dew Point 45 °F
Humidity 89%
Rainfall 0.00 in
Snow Depth Not available.
7:36 AM 5:36 PM
Waning Crescent, 35% visible
METAR KBKW 211151Z AUTO 14004KT 10SM CLR 09/07 A2985 RMK AO2 SLP106 70001 T00890072 10106 20078 56007

Get Your Daily Forecast Email!

Thanks for signing up!

Be on the lookout for a verification email in your inbox.

You'll start receiving the daily forecast at 8 AM.

×

10-Day Weather Forecast

Almanac

Astronomy

Jan. 21, 2017 Rise Set
Actual Time
Civil Twilight
Nautical Twilight
Astronomical Twilight
Moon
Length of Visible Light
Length of Day
Tomorrow will be .
, % of the Moon is Illuminated

Today's Extremes

State Highs State Lows

Community

WunderPhotos

Upload Photos

1,962,540 photos uploaded!

WunderBlog® & News

Nearby

Air Quality

  Air Quality AQ Index Pollutant
Not available.

Snow Depth

Station Depth Elevation

Earthquake Activity

City Distance Mag. Time & Date
Minimum magnitude displayed is 2.5.

Coastal Water Temperatures

Place Temperature

Stations

Nearby Weather Stations

Station Location Temp. Windchill Dew Point Humidity Wind Precip. Elev Updated Type
                   

Watches & Warnings

There are currently no watches in effect.